Time;durP1;ratioP1;P1;durP2;ratioP2;P2;SDS_P1;SDS_P2;PMS_P1;PMS_P2;Temp;Humidity;BMP_temperature;BMP_pressure;BME280_temperature;BME280_humidity;BME280_pressure;Samples;Min_cycle;Max_cycle;Signal;HPM_P1;HPM_P2
2022/03/15 00:01:21;;;;;;;0.40;0.40;;;7.20;99.90;;;;;;4998296;28;20443;-71
2022/03/15 00:04:08;;;;;;;0.40;0.40;;;7.30;99.90;;;;;;4997765;28;20427;-71
2022/03/15 00:06:58;;;;;;;0.77;0.60;;;7.30;99.90;;;;;;4996968;28;20419;-73
2022/03/15 00:09:45;;;;;;;0.40;0.40;;;7.40;99.90;;;;;;4998549;28;20423;-71
2022/03/15 00:12:32;;;;;;;0.40;0.40;;;7.50;99.90;;;;;;4998217;28;20783;-71
2022/03/15 00:15:20;;;;;;;0.50;0.50;;;7.50;99.90;;;;;;4997222;28;20434;-71
2022/03/15 00:18:07;;;;;;;0.50;0.50;;;7.60;99.90;;;;;;4997056;28;20467;-70
2022/03/15 00:20:54;;;;;;;0.43;0.43;;;7.60;99.90;;;;;;4993535;28;20447;-71
2022/03/15 00:23:42;;;;;;;0.50;0.50;;;7.70;99.90;;;;;;4993249;28;20844;-70
2022/03/15 00:26:29;;;;;;;0.40;0.40;;;7.70;99.90;;;;;;4993290;28;20514;-71
2022/03/15 00:29:17;;;;;;;0.40;0.40;;;7.70;99.90;;;;;;4994050;28;20434;-70
2022/03/15 00:32:06;;;;;;;0.50;0.50;;;7.70;99.90;;;;;;4993441;28;20427;-70
2022/03/15 00:34:53;;;;;;;0.50;0.50;;;7.70;99.90;;;;;;4993238;28;20542;-72
2022/03/15 00:37:40;;;;;;;1.93;1.83;;;7.70;99.90;;;;;;4993152;28;20478;-70
2022/03/15 00:40:27;;;;;;;0.47;0.47;;;7.70;99.90;;;;;;4992988;28;20537;-71
2022/03/15 00:43:14;;;;;;;0.70;0.70;;;7.70;99.90;;;;;;4993305;28;20427;-71
2022/03/15 00:46:02;;;;;;;0.50;0.50;;;7.80;99.90;;;;;;4993178;28;20430;-70
2022/03/15 00:48:50;;;;;;;0.40;0.40;;;7.70;99.90;;;;;;4992993;28;20485;-71
2022/03/15 00:51:37;;;;;;;0.50;0.50;;;7.70;99.90;;;;;;4992959;28;20495;-72
2022/03/15 00:54:24;;;;;;;0.50;0.50;;;7.50;99.90;;;;;;4992959;28;20810;-71
2022/03/15 00:57:11;;;;;;;0.50;0.50;;;7.40;99.90;;;;;;5011880;28;20461;-71
2022/03/15 00:59:58;;;;;;;0.40;0.40;;;7.30;99.90;;;;;;5032171;28;20990;-71
2022/03/15 01:02:45;;;;;;;0.50;0.50;;;7.20;99.90;;;;;;5031175;28;20426;-72
2022/03/15 01:05:33;;;;;;;0.50;0.50;;;7.10;99.90;;;;;;5032249;28;20425;-71
2022/03/15 01:08:20;;;;;;;0.50;0.50;;;7.00;99.90;;;;;;5032188;28;20978;-71
2022/03/15 01:11:07;;;;;;;0.40;0.40;;;6.90;99.90;;;;;;5032191;28;20491;-71
2022/03/15 01:13:54;;;;;;;0.40;0.40;;;6.80;99.90;;;;;;5031061;28;20525;-72
2022/03/15 01:16:41;;;;;;;1.77;1.70;;;6.80;99.90;;;;;;5031875;28;20504;-70
2022/03/15 01:19:28;;;;;;;0.40;0.40;;;6.70;99.90;;;;;;5032782;28;20855;-71
2022/03/15 01:22:17;;;;;;;0.40;0.40;;;6.60;99.90;;;;;;5032071;28;20443;-72
2022/03/15 01:25:04;;;;;;;0.40;0.40;;;6.60;99.90;;;;;;5032550;28;20421;-71
2022/03/15 01:27:52;;;;;;;0.50;0.50;;;6.60;99.90;;;;;;5032065;28;20421;-71
2022/03/15 01:30:39;;;;;;;0.40;0.40;;;6.50;99.90;;;;;;5032189;28;20468;-71
2022/03/15 01:33:27;;;;;;;0.70;0.70;;;6.60;99.90;;;;;;5031669;28;20421;-71
2022/03/15 01:36:13;;;;;;;0.50;0.50;;;6.40;99.90;;;;;;5031889;28;20429;-71
2022/03/15 01:39:02;;;;;;;0.40;0.40;;;6.40;99.90;;;;;;5031866;28;20571;-71
2022/03/15 01:41:49;;;;;;;0.50;0.50;;;6.30;99.90;;;;;;5032045;28;20457;-72
2022/03/15 01:44:37;;;;;;;0.50;0.50;;;6.30;99.90;;;;;;5032649;28;20432;-70
2022/03/15 01:47:23;;;;;;;0.90;0.90;;;6.40;99.90;;;;;;5032123;28;20858;-71
2022/03/15 01:50:10;;;;;;;0.40;0.40;;;6.40;99.90;;;;;;5032495;28;20487;-71
2022/03/15 01:52:57;;;;;;;0.40;0.40;;;6.40;99.90;;;;;;5032006;28;20461;-71
2022/03/15 01:55:46;;;;;;;2.40;2.30;;;6.50;99.90;;;;;;5031473;28;20584;-70
2022/03/15 01:58:33;;;;;;;0.40;0.40;;;6.30;99.90;;;;;;4993317;28;20451;-71
2022/03/15 02:01:20;;;;;;;0.50;0.50;;;6.20;99.90;;;;;;4992146;28;20967;-70
2022/03/15 02:04:07;;;;;;;0.40;0.40;;;6.10;99.90;;;;;;5001827;28;20434;-71
2022/03/15 02:07:02;;;;;;;0.40;0.40;;;6.30;99.90;;;;;;5013206;28;20422;-73
2022/03/15 02:09:49;;;;;;;0.47;0.47;;;6.00;99.90;;;;;;5011614;28;20462;-72
2022/03/15 02:12:38;;;;;;;0.40;0.40;;;6.00;99.90;;;;;;5011782;28;20462;-73
2022/03/15 02:15:25;;;;;;;0.43;0.43;;;5.90;99.90;;;;;;5012361;28;20560;-73
2022/03/15 02:18:12;;;;;;;0.40;0.40;;;5.90;99.90;;;;;;5012588;28;20655;-71
2022/03/15 02:21:00;;;;;;;0.40;0.40;;;5.80;99.90;;;;;;5015628;28;20496;-71
2022/03/15 02:23:47;;;;;;;0.50;0.50;;;5.80;99.90;;;;;;5015565;28;20977;-71
2022/03/15 02:26:34;;;;;;;0.40;0.40;;;5.70;99.90;;;;;;5015710;28;20418;-71
2022/03/15 02:29:22;;;;;;;0.50;0.50;;;5.60;99.90;;;;;;5016513;28;20418;-71
2022/03/15 02:32:09;;;;;;;0.50;0.50;;;5.60;99.90;;;;;;5015052;28;20516;-70
2022/03/15 02:34:56;;;;;;;0.50;0.50;;;5.70;99.90;;;;;;5016287;28;20433;-71
2022/03/15 02:37:45;;;;;;;0.50;0.50;;;5.50;99.90;;;;;;5015856;28;20454;-70
2022/03/15 02:40:32;;;;;;;0.50;0.50;;;5.50;99.90;;;;;;5014561;28;20577;-71
2022/03/15 02:43:18;;;;;;;0.50;0.50;;;5.40;99.90;;;;;;5014630;28;20438;-72
2022/03/15 02:46:05;;;;;;;0.40;0.40;;;5.30;99.90;;;;;;5014001;28;20845;-71
2022/03/15 02:48:52;;;;;;;0.40;0.40;;;5.30;99.90;;;;;;5016059;28;20446;-71
2022/03/15 02:51:39;;;;;;;0.50;0.50;;;5.20;99.90;;;;;;5015551;28;20442;-71
2022/03/15 02:54:28;;;;;;;0.50;0.50;;;5.20;99.90;;;;;;5015913;28;20498;-71
2022/03/15 02:57:15;;;;;;;0.50;0.50;;;5.30;99.90;;;;;;5015065;28;20438;-71
2022/03/15 03:00:02;;;;;;;0.50;0.50;;;5.10;99.90;;;;;;5015952;28;20446;-70
2022/03/15 03:02:49;;;;;;;0.40;0.40;;;5.10;99.90;;;;;;5015628;28;20431;-70
2022/03/15 03:05:36;;;;;;;0.40;0.40;;;5.10;99.90;;;;;;5015905;28;20434;-71
2022/03/15 03:08:26;;;;;;;0.50;0.50;;;5.00;99.90;;;;;;5015593;28;20419;-70
2022/03/15 03:11:14;;;;;;;0.50;0.50;;;5.00;99.90;;;;;;5015381;28;20449;-70
2022/03/15 03:14:04;;;;;;;0.40;0.40;;;5.00;99.90;;;;;;5015959;28;20780;-71
2022/03/15 03:16:51;;;;;;;0.50;0.50;;;5.00;99.90;;;;;;5015002;28;20884;-71
2022/03/15 03:19:38;;;;;;;0.50;0.50;;;4.90;99.90;;;;;;5015645;28;20857;-70
2022/03/15 03:22:25;;;;;;;0.50;0.50;;;4.80;99.90;;;;;;5015350;28;20433;-71
2022/03/15 03:25:12;;;;;;;0.50;0.50;;;4.80;99.90;;;;;;5015422;28;20422;-71
2022/03/15 03:28:01;;;;;;;0.50;0.50;;;4.80;99.90;;;;;;5015589;28;20919;-71
2022/03/15 03:30:48;;;;;;;0.40;0.40;;;4.70;99.90;;;;;;5015629;28;20454;-69
2022/03/15 03:33:35;;;;;;;0.40;0.40;;;4.70;99.90;;;;;;5015894;28;20422;-70
2022/03/15 03:36:24;;;;;;;0.50;0.50;;;4.70;99.90;;;;;;5015666;28;20434;-70
2022/03/15 03:39:11;;;;;;;0.40;0.40;;;4.60;99.90;;;;;;5015121;28;20458;-69
2022/03/15 03:41:58;;;;;;;0.50;0.50;;;4.60;99.90;;;;;;5014699;28;20481;-71
2022/03/15 03:44:47;;;;;;;0.50;0.50;;;4.70;99.90;;;;;;5015638;28;20449;-69
2022/03/15 03:47:34;;;;;;;0.60;0.60;;;4.60;99.90;;;;;;5015286;28;20439;-69
2022/03/15 03:50:21;;;;;;;0.50;0.50;;;4.60;99.90;;;;;;5014885;28;20453;-69
2022/03/15 03:53:08;;;;;;;0.50;0.50;;;4.60;99.90;;;;;;5014424;28;20801;-70
2022/03/15 03:55:55;;;;;;;0.50;0.50;;;4.60;99.90;;;;;;5015037;28;20430;-69
2022/03/15 03:58:42;;;;;;;0.50;0.50;;;4.60;99.90;;;;;;4996004;28;20509;-69
2022/03/15 04:01:30;;;;;;;0.50;0.50;;;4.60;99.90;;;;;;4993979;28;20498;-69
2022/03/15 04:04:17;;;;;;;0.50;0.50;;;4.50;99.90;;;;;;4994047;28;20533;-70
2022/03/15 04:07:07;;;;;;;0.50;0.50;;;4.40;99.90;;;;;;4995644;28;20427;-70
2022/03/15 04:09:54;;;;;;;0.50;0.50;;;4.40;99.90;;;;;;5002208;28;20419;-69
2022/03/15 04:12:41;;;;;;;0.50;0.50;;;4.40;99.90;;;;;;5014804;28;20565;-69
2022/03/15 04:15:30;;;;;;;0.50;0.50;;;4.30;99.90;;;;;;5014826;28;20441;-70
2022/03/15 04:18:18;;;;;;;0.50;0.50;;;4.30;99.90;;;;;;5025169;28;20466;-70
2022/03/15 04:21:05;;;;;;;0.50;0.50;;;4.30;99.90;;;;;;5032434;28;20965;-69
2022/03/15 04:23:53;;;;;;;0.50;0.50;;;4.30;99.90;;;;;;5033056;28;20421;-70
2022/03/15 04:26:41;;;;;;;0.50;0.50;;;4.20;99.90;;;;;;5033769;28;20421;-69
2022/03/15 04:29:28;;;;;;;0.50;0.50;;;4.20;99.90;;;;;;5034599;28;20427;-71
2022/03/15 04:32:15;;;;;;;0.40;0.40;;;4.20;99.90;;;;;;5033336;28;20426;-69
2022/03/15 04:35:04;;;;;;;0.50;0.50;;;4.20;99.90;;;;;;5033603;28;20425;-70
2022/03/15 04:37:52;;;;;;;0.40;0.40;;;4.20;99.90;;;;;;5033501;28;20422;-71
2022/03/15 04:40:39;;;;;;;0.50;0.50;;;4.20;99.90;;;;;;5033359;28;20464;-70
2022/03/15 04:43:26;;;;;;;0.50;0.50;;;4.20;99.90;;;;;;5033118;28;20869;-69
2022/03/15 04:46:13;;;;;;;0.50;0.50;;;4.20;99.90;;;;;;5032578;28;20488;-70
2022/03/15 04:49:00;;;;;;;0.47;0.47;;;4.20;99.90;;;;;;5033623;28;20428;-69
2022/03/15 04:51:48;;;;;;;0.50;0.50;;;4.20;99.90;;;;;;5032595;28;20984;-71
2022/03/15 04:54:35;;;;;;;0.50;0.50;;;4.10;99.90;;;;;;5032489;28;20424;-70
2022/03/15 04:57:23;;;;;;;0.50;0.50;;;4.20;99.90;;;;;;5033027;28;20984;-69
2022/03/15 05:00:11;;;;;;;0.50;0.50;;;4.20;99.90;;;;;;5034092;28;20449;-69
2022/03/15 05:02:58;;;;;;;0.50;0.50;;;4.10;99.90;;;;;;5032793;28;20440;-69
2022/03/15 05:05:46;;;;;;;0.50;0.50;;;4.10;99.90;;;;;;5032754;28;20421;-69
2022/03/15 05:08:34;;;;;;;0.50;0.50;;;4.10;99.90;;;;;;5032800;28;20746;-69
2022/03/15 05:11:21;;;;;;;0.50;0.50;;;4.20;99.90;;;;;;5033511;28;20966;-69
2022/03/15 05:14:08;;;;;;;0.50;0.50;;;4.10;99.90;;;;;;5032551;28;20425;-69
2022/03/15 05:16:55;;;;;;;0.50;0.50;;;4.10;99.90;;;;;;5032454;28;20432;-69
2022/03/15 05:19:42;;;;;;;0.50;0.50;;;4.10;99.90;;;;;;5032660;28;20468;-69
2022/03/15 05:22:29;;;;;;;0.50;0.50;;;4.20;99.90;;;;;;5032779;28;20511;-69
2022/03/15 05:25:17;;;;;;;0.50;0.50;;;4.10;99.90;;;;;;5033341;28;20891;-69
2022/03/15 05:28:07;;;;;;;0.40;0.40;;;4.10;99.90;;;;;;5032805;28;20433;-69
2022/03/15 05:30:54;;;;;;;0.50;0.50;;;4.20;99.90;;;;;;5031512;28;20496;-70
2022/03/15 05:33:41;;;;;;;0.50;0.50;;;4.20;99.90;;;;;;5032954;28;20425;-70
2022/03/15 05:36:28;;;;;;;0.50;0.50;;;4.30;99.90;;;;;;5032570;28;20519;-69
2022/03/15 05:39:15;;;;;;;0.40;0.40;;;4.20;99.90;;;;;;5032734;28;20465;-69
2022/03/15 05:42:04;;;;;;;0.50;0.50;;;4.30;99.90;;;;;;5031688;28;20551;-69
2022/03/15 05:44:51;;;;;;;0.50;0.50;;;4.30;99.90;;;;;;5031276;28;20462;-70
2022/03/15 05:47:38;;;;;;;0.50;0.50;;;4.30;99.90;;;;;;5033151;28;20937;-69
2022/03/15 05:50:25;;;;;;;0.50;0.50;;;4.40;99.90;;;;;;5032635;28;20442;-71
2022/03/15 05:53:12;;;;;;;0.40;0.40;;;4.40;99.90;;;;;;5035957;28;20428;-69
2022/03/15 05:55:59;;;;;;;0.50;0.50;;;4.50;99.90;;;;;;5036759;28;20957;-70
2022/03/15 05:58:47;;;;;;;0.50;0.50;;;4.50;99.90;;;;;;4997389;28;20455;-70
2022/03/15 06:01:34;;;;;;;0.50;0.50;;;4.60;99.90;;;;;;4997047;28;20442;-71
2022/03/15 06:04:24;;;;;;;0.50;0.50;;;4.60;99.90;;;;;;4997804;28;20473;-70
2022/03/15 06:07:11;;;;;;;0.50;0.50;;;4.70;99.90;;;;;;4997575;28;20431;-70
2022/03/15 06:09:58;;;;;;;0.50;0.50;;;4.80;99.90;;;;;;4996644;28;20437;-70
2022/03/15 06:12:45;;;;;;;0.50;0.50;;;4.80;99.90;;;;;;4996260;28;21066;-71
2022/03/15 06:15:33;;;;;;;0.50;0.50;;;4.80;99.90;;;;;;4996606;28;20430;-70
2022/03/15 06:18:20;;;;;;;0.50;0.50;;;4.90;99.90;;;;;;4996479;28;20431;-69
2022/03/15 06:21:07;;;;;;;0.50;0.50;;;5.00;99.90;;;;;;4995887;28;20458;-69
2022/03/15 06:23:54;;;;;;;0.50;0.50;;;5.10;99.90;;;;;;4996316;28;20420;-70
2022/03/15 06:26:42;;;;;;;0.50;0.50;;;5.30;99.90;;;;;;4996716;28;20435;-70
2022/03/15 06:29:29;;;;;;;0.50;0.50;;;5.20;99.90;;;;;;4995936;28;20438;-70
2022/03/15 06:32:18;;;;;;;0.40;0.40;;;5.30;99.90;;;;;;4995110;28;20423;-70
2022/03/15 06:35:07;;;;;;;0.50;0.50;;;5.30;99.90;;;;;;4996258;28;20431;-69
2022/03/15 06:37:55;;;;;;;0.40;0.40;;;5.40;99.90;;;;;;4997740;28;20911;-69
2022/03/15 06:40:42;;;;;;;0.43;0.43;;;5.50;99.90;;;;;;4997222;28;20513;-70
2022/03/15 06:43:29;;;;;;;0.40;0.40;;;5.60;99.90;;;;;;5000122;28;20818;-71
2022/03/15 06:46:16;;;;;;;0.50;0.50;;;5.70;99.90;;;;;;5020620;28;20460;-71
2022/03/15 06:49:05;;;;;;;0.50;0.50;;;5.70;99.90;;;;;;5022087;28;20422;-70
2022/03/15 06:51:52;;;;;;;0.50;0.50;;;5.90;99.90;;;;;;5021859;28;20446;-71
2022/03/15 06:54:39;;;;;;;0.50;0.50;;;5.90;99.90;;;;;;5022876;28;20447;-71
2022/03/15 06:57:26;;;;;;;0.43;0.43;;;6.00;99.90;;;;;;5022343;28;20438;-70
2022/03/15 07:00:15;;;;;;;0.40;0.40;;;6.10;99.90;;;;;;5024166;28;20470;-70
2022/03/15 07:03:02;;;;;;;0.47;0.47;;;6.20;99.90;;;;;;5011917;28;20486;-71
2022/03/15 07:05:50;;;;;;;0.50;0.50;;;6.20;99.90;;;;;;5022241;28;20426;-70
2022/03/15 07:08:37;;;;;;;0.50;0.50;;;6.50;99.90;;;;;;5019468;28;20426;-71
2022/03/15 07:11:23;;;;;;;0.50;0.50;;;6.50;99.90;;;;;;5021001;28;20474;-71
2022/03/15 07:14:10;;;;;;;0.40;0.40;;;6.60;99.90;;;;;;5009689;28;20455;-71
2022/03/15 07:16:57;;;;;;;0.50;0.50;;;6.70;99.90;;;;;;5010824;28;20428;-70
2022/03/15 07:19:44;;;;;;;0.40;0.40;;;6.90;99.90;;;;;;5013761;28;20465;-70
2022/03/15 07:22:33;;;;;;;0.50;0.50;;;6.90;99.90;;;;;;5014083;28;20458;-69
2022/03/15 07:25:20;;;;;;;0.50;0.50;;;7.10;99.90;;;;;;5015285;28;20427;-74
2022/03/15 07:28:07;;;;;;;1.27;1.27;;;7.10;99.90;;;;;;5014624;28;20431;-71
2022/03/15 07:30:54;;;;;;;0.50;0.50;;;7.30;99.90;;;;;;5013448;28;20434;-72
2022/03/15 07:33:41;;;;;;;0.50;0.50;;;7.40;99.90;;;;;;5013348;28;20452;-70
2022/03/15 07:36:29;;;;;;;0.50;0.50;;;7.40;99.90;;;;;;5014857;28;20453;-70
2022/03/15 07:39:18;;;;;;;0.70;0.70;;;7.60;99.90;;;;;;5013790;28;20458;-69
2022/03/15 07:42:05;;;;;;;0.80;0.80;;;7.70;99.90;;;;;;5013223;28;20448;-70
2022/03/15 07:44:52;;;;;;;0.53;0.53;;;7.70;99.90;;;;;;5013789;28;20814;-71
2022/03/15 07:47:39;;;;;;;0.40;0.40;;;7.80;99.90;;;;;;5013552;28;20434;-70
2022/03/15 07:50:26;;;;;;;0.50;0.50;;;7.90;99.90;;;;;;5013953;28;20533;-70
2022/03/15 07:53:13;;;;;;;0.50;0.50;;;7.90;99.90;;;;;;5020941;28;20429;-71
2022/03/15 07:56:02;;;;;;;0.50;0.50;;;8.00;99.90;;;;;;5028214;28;20441;-69
2022/03/15 07:58:49;;;;;;;5.70;1.47;;;8.10;99.90;;;;;;4996190;28;20477;-69
2022/03/15 08:01:36;;;;;;;0.50;0.50;;;8.20;99.90;;;;;;4994244;28;20462;-72
2022/03/15 08:04:23;;;;;;;0.40;0.40;;;8.20;99.90;;;;;;4994189;28;20518;-70
2022/03/15 08:07:10;;;;;;;0.50;0.50;;;8.30;99.90;;;;;;4995053;28;20435;-70
2022/03/15 08:09:57;;;;;;;0.67;0.67;;;8.30;99.90;;;;;;5005591;28;20430;-71
2022/03/15 08:12:46;;;;;;;0.40;0.40;;;8.40;99.90;;;;;;5017154;28;20422;-69
2022/03/15 08:15:32;;;;;;;0.50;0.50;;;8.60;99.90;;;;;;5011201;28;20498;-69
2022/03/15 08:18:19;;;;;;;0.50;0.50;;;8.80;99.90;;;;;;5012881;28;20431;-72
2022/03/15 08:21:07;;;;;;;0.40;0.40;;;8.80;99.90;;;;;;5012424;28;20470;-69
2022/03/15 08:23:54;;;;;;;0.40;0.40;;;8.90;99.90;;;;;;5012453;28;20423;-70
2022/03/15 08:26:41;;;;;;;0.40;0.40;;;9.00;99.90;;;;;;5013554;28;20434;-70
2022/03/15 08:29:30;;;;;;;0.87;0.87;;;9.10;99.90;;;;;;5013445;28;20816;-69
2022/03/15 08:32:17;;;;;;;0.40;0.40;;;9.10;99.90;;;;;;5013277;28;20430;-71
2022/03/15 08:35:05;;;;;;;0.50;0.50;;;9.20;99.90;;;;;;5012971;28;20902;-70
2022/03/15 08:37:53;;;;;;;0.73;0.73;;;9.30;99.90;;;;;;5013104;28;20986;-69
2022/03/15 08:40:40;;;;;;;0.50;0.50;;;9.50;99.90;;;;;;5002414;28;21104;-69
2022/03/15 08:43:27;;;;;;;0.47;0.47;;;9.50;99.90;;;;;;5018803;28;20441;-70
2022/03/15 08:46:15;;;;;;;0.40;0.40;;;9.60;99.90;;;;;;5031828;28;20426;-70
2022/03/15 08:49:04;;;;;;;0.40;0.40;;;9.70;99.90;;;;;;4992694;28;20971;-71
2022/03/15 08:51:51;;;;;;;0.50;0.50;;;9.90;99.90;;;;;;4991838;28;20459;-70
2022/03/15 08:54:38;;;;;;;0.50;0.50;;;10.00;99.90;;;;;;4992535;28;20431;-70
2022/03/15 08:57:25;;;;;;;0.50;0.50;;;10.00;99.90;;;;;;4998977;28;20432;-70
2022/03/15 09:00:13;;;;;;;2.30;2.20;;;10.00;99.90;;;;;;5011290;28;20481;-70
2022/03/15 09:03:01;;;;;;;0.40;0.40;;;10.20;99.90;;;;;;5006068;28;20439;-70
2022/03/15 09:05:48;;;;;;;0.50;0.50;;;10.30;99.90;;;;;;4992269;28;20426;-70
2022/03/15 09:08:35;;;;;;;0.40;0.40;;;10.30;99.90;;;;;;4992384;28;20432;-74
2022/03/15 09:11:22;;;;;;;0.40;0.40;;;10.40;99.90;;;;;;5010508;28;20450;-69
2022/03/15 09:14:09;;;;;;;0.47;0.47;;;10.70;99.90;;;;;;5012710;28;20429;-70
2022/03/15 09:16:57;;;;;;;0.40;0.40;;;10.80;99.90;;;;;;5012472;28;20422;-70
2022/03/15 09:19:45;;;;;;;0.40;0.40;;;10.90;99.90;;;;;;5012722;28;20608;-70
2022/03/15 09:22:33;;;;;;;0.50;0.50;;;11.00;99.90;;;;;;5012610;28;20438;-70
2022/03/15 09:25:20;;;;;;;0.47;0.47;;;11.00;99.90;;;;;;5015794;28;20951;-72
2022/03/15 09:28:07;;;;;;;0.43;0.43;;;11.20;99.90;;;;;;5011630;28;20958;-69
2022/03/15 09:30:54;;;;;;;0.50;0.50;;;11.20;99.90;;;;;;5010781;28;20525;-70
2022/03/15 09:33:43;;;;;;;0.50;0.50;;;11.20;99.90;;;;;;5011379;28;20484;-69
2022/03/15 09:36:31;;;;;;;1.00;1.00;;;11.30;99.90;;;;;;5017033;28;20569;-70
2022/03/15 09:39:19;;;;;;;0.40;0.40;;;11.40;99.90;;;;;;5011913;28;20431;-70
2022/03/15 09:42:08;;;;;;;0.43;0.43;;;11.40;99.90;;;;;;5010121;28;20442;-70
2022/03/15 09:44:58;;;;;;;1.10;1.10;;;11.70;99.90;;;;;;5012193;28;20430;-72
2022/03/15 09:47:51;;;;;;;0.70;0.70;;;11.80;99.90;;;;;;5003390;28;20818;-73
2022/03/15 09:50:40;;;;;;;0.40;0.40;;;12.10;99.90;;;;;;5010962;28;20230;-70
2022/03/15 09:53:29;;;;;;;0.50;0.50;;;12.10;99.90;;;;;;5006651;28;20431;-70
2022/03/15 09:56:16;;;;;;;0.50;0.50;;;12.20;99.90;;;;;;5011602;28;20230;-70
2022/03/15 09:59:03;;;;;;;0.50;0.40;;;12.40;99.90;;;;;;5010750;28;20194;-69
2022/03/15 10:01:53;;;;;;;1.53;1.43;;;12.70;99.90;;;;;;5011527;28;20465;-71
2022/03/15 10:04:40;;;;;;;0.40;0.40;;;12.80;99.90;;;;;;5011991;28;20426;-70
2022/03/15 10:07:27;;;;;;;0.40;0.40;;;12.90;99.90;;;;;;5011507;28;20419;-71
2022/03/15 10:10:16;;;;;;;0.40;0.40;;;13.10;99.90;;;;;;5012107;28;20497;-69
2022/03/15 10:13:03;;;;;;;0.60;0.60;;;13.20;99.90;;;;;;5010058;28;20199;-69
2022/03/15 10:15:51;;;;;;;0.67;0.67;;;13.20;99.90;;;;;;5012327;28;20211;-69
2022/03/15 10:18:38;;;;;;;0.50;0.50;;;13.30;99.90;;;;;;5012328;28;20199;-71
2022/03/15 10:21:39;;;;;;;0.50;0.50;;;13.40;99.90;;;;;;5010314;28;20235;-69
2022/03/15 10:24:29;;;;;;;0.50;0.50;;;13.50;99.90;;;;;;5025997;28;20214;-70
2022/03/15 10:27:18;;;;;;;0.40;0.40;;;13.40;99.90;;;;;;5011644;28;20203;-70
2022/03/15 10:30:08;;;;;;;0.90;0.70;;;13.40;99.90;;;;;;5012721;28;20220;-70
2022/03/15 10:32:55;;;;;;;0.40;0.40;;;13.30;99.90;;;;;;5012713;28;20687;-70
2022/03/15 10:35:45;;;;;;;0.50;0.50;;;13.30;99.90;;;;;;5010623;28;20200;-69
2022/03/15 10:38:32;;;;;;;1.43;1.33;;;13.30;99.90;;;;;;5013489;28;20200;-69
2022/03/15 10:41:20;;;;;;;1.03;0.70;;;13.40;99.90;;;;;;5015770;28;20222;-70
2022/03/15 10:44:16;;;;;;;0.63;0.60;;;13.40;99.90;;;;;;5015983;28;20556;-70
2022/03/15 10:47:06;;;;;;;1.83;1.67;;;13.50;99.90;;;;;;5014933;28;20629;-70
2022/03/15 10:49:55;;;;;;;0.50;0.50;;;13.60;99.90;;;;;;5014341;28;20280;-70
2022/03/15 10:52:42;;;;;;;0.40;0.40;;;13.60;99.90;;;;;;5013585;28;20211;-69
2022/03/15 10:55:30;;;;;;;0.40;0.40;;;13.90;99.90;;;;;;5013744;28;20566;-69
2022/03/15 10:58:23;;;;;;;0.40;0.40;;;13.90;99.90;;;;;;5032694;28;20280;-70
2022/03/15 11:01:12;;;;;;;0.40;0.40;;;13.90;99.90;;;;;;5008897;28;20298;-70
2022/03/15 11:04:00;;;;;;;2.70;2.20;;;14.10;99.90;;;;;;5011184;28;21039;-70
2022/03/15 11:06:50;;;;;;;0.40;0.40;;;14.10;99.90;;;;;;5013392;28;20262;-70
2022/03/15 11:09:36;;;;;;;0.68;0.68;;;14.00;99.90;;;;;;5013025;28;20202;-70
2022/03/15 11:12:23;;;;;;;0.40;0.40;;;14.00;99.90;;;;;;5011417;28;20285;-70
2022/03/15 11:15:12;;;;;;;0.50;0.50;;;14.20;99.90;;;;;;5014226;28;20225;-69
2022/03/15 11:18:02;;;;;;;0.50;0.50;;;14.30;99.90;;;;;;5012983;28;20207;-69
2022/03/15 11:20:51;;;;;;;0.40;0.40;;;14.70;99.90;;;;;;5014157;28;20239;-70
2022/03/15 11:23:40;;;;;;;0.40;0.40;;;14.90;99.90;;;;;;4994740;28;20289;-70
2022/03/15 11:26:31;;;;;;;0.40;0.40;;;15.00;99.90;;;;;;4994621;28;20291;-70
2022/03/15 11:29:23;;;;;;;0.50;0.40;;;15.20;99.90;;;;;;4994652;28;20200;-72
2022/03/15 11:32:13;;;;;;;0.40;0.40;;;15.30;99.90;;;;;;4994508;28;20279;-71
2022/03/15 11:35:02;;;;;;;1.40;1.25;;;15.50;99.90;;;;;;5011831;28;20676;-72
2022/03/15 11:37:51;;;;;;;0.50;0.50;;;15.70;99.90;;;;;;5012683;28;20285;-71
2022/03/15 11:40:38;;;;;;;0.40;0.40;;;15.90;99.90;;;;;;5013538;28;20731;-70
2022/03/15 11:43:38;;;;;;;0.43;0.43;;;16.10;99.90;;;;;;5011179;28;20203;-72
2022/03/15 11:46:29;;;;;;;0.43;0.43;;;16.20;99.90;;;;;;5013816;28;20274;-70
2022/03/15 11:49:25;;;;;;;0.40;0.40;;;16.00;99.90;;;;;;5014019;28;20199;-71
2022/03/15 11:52:32;;;;;;;0.40;0.40;;;16.20;99.90;;;;;;5012898;28;20204;-70
2022/03/15 11:55:27;;;;;;;0.60;0.60;;;16.40;99.90;;;;;;5012087;28;20265;-72
2022/03/15 11:58:24;;;;;;;0.50;0.50;;;16.50;99.90;;;;;;5011358;28;20226;-69
2022/03/15 12:01:12;;;;;;;0.50;0.50;;;16.40;99.90;;;;;;5011816;28;20769;-70
2022/03/15 12:04:02;;;;;;;0.40;0.40;;;16.20;99.90;;;;;;5013284;28;20207;-71
2022/03/15 12:06:54;;;;;;;0.50;0.50;;;16.30;99.90;;;;;;5013097;28;20219;-72
2022/03/15 12:09:47;;;;;;;0.40;0.40;;;16.10;99.90;;;;;;5012904;28;20226;-73
2022/03/15 12:12:34;;;;;;;0.40;0.40;;;16.20;99.90;;;;;;5012835;28;20238;-71
2022/03/15 12:15:23;;;;;;;0.63;0.63;;;16.10;99.90;;;;;;5012485;28;20750;-70
2022/03/15 12:18:27;;;;;;;0.40;0.40;;;16.10;99.90;;;;;;5013053;28;20273;-70
2022/03/15 12:21:14;;;;;;;1.98;1.77;;;16.20;99.90;;;;;;5012029;28;20361;-69
2022/03/15 12:24:01;;;;;;;0.40;0.40;;;16.40;99.90;;;;;;5012465;28;20594;-69
2022/03/15 12:27:01;;;;;;;0.40;0.40;;;16.50;99.90;;;;;;5011783;28;20257;-71
2022/03/15 12:29:52;;;;;;;0.50;0.50;;;16.50;99.90;;;;;;5010916;28;20207;-70
2022/03/15 12:32:50;;;;;;;0.40;0.40;;;16.50;99.90;;;;;;5013156;28;20203;-69
2022/03/15 12:35:37;;;;;;;0.47;0.47;;;16.70;99.90;;;;;;5013054;28;20293;-70
2022/03/15 12:38:33;;;;;;;2.78;2.40;;;16.30;99.90;;;;;;5013108;28;20211;-71
2022/03/15 12:41:25;;;;;;;1.58;0.57;;;16.20;99.90;;;;;;5011679;28;20755;-72
2022/03/15 12:44:14;;;;;;;0.40;0.40;;;15.90;99.90;;;;;;5010611;28;20210;-71
2022/03/15 12:47:02;;;;;;;0.80;0.80;;;16.00;99.90;;;;;;5008975;28;20199;-71
2022/03/15 12:50:06;;;;;;;0.40;0.40;;;16.20;99.90;;;;;;5012313;28;20210;-70
2022/03/15 12:52:56;;;;;;;0.65;0.65;;;16.20;99.90;;;;;;5006007;28;20583;-70
2022/03/15 12:55:44;;;;;;;0.60;0.60;;;16.30;99.90;;;;;;5027759;28;20217;-69
2022/03/15 12:58:31;;;;;;;0.40;0.40;;;16.50;99.90;;;;;;5010416;28;20210;-70
2022/03/15 13:01:19;;;;;;;0.50;0.50;;;16.60;99.90;;;;;;5007787;28;20580;-69
2022/03/15 13:04:06;;;;;;;0.40;0.40;;;16.70;99.90;;;;;;4992222;28;20677;-69
2022/03/15 13:06:56;;;;;;;0.40;0.40;;;16.70;99.90;;;;;;4992030;28;20584;-69
2022/03/15 13:09:45;;;;;;;0.50;0.50;;;16.80;99.90;;;;;;4991524;28;20214;-69
2022/03/15 13:12:33;;;;;;;0.40;0.40;;;16.70;99.90;;;;;;5008614;28;20621;-70
2022/03/15 13:15:20;;;;;;;3.53;3.30;;;16.70;99.90;;;;;;5010411;28;20207;-70
2022/03/15 13:18:08;;;;;;;0.40;0.40;;;16.80;99.90;;;;;;5011720;28;20207;-72
2022/03/15 13:20:59;;;;;;;0.40;0.40;;;16.90;99.90;;;;;;5011806;28;20261;-70
2022/03/15 13:23:48;;;;;;;0.50;0.50;;;16.80;99.90;;;;;;5011304;28;20232;-71
2022/03/15 13:26:38;;;;;;;0.40;0.40;;;16.80;99.90;;;;;;5011538;28;20262;-72
2022/03/15 13:29:26;;;;;;;0.60;0.60;;;16.60;99.90;;;;;;5010468;28;20684;-72
2022/03/15 13:32:22;;;;;;;0.40;0.40;;;16.40;99.90;;;;;;5011074;28;20202;-71
2022/03/15 13:35:11;;;;;;;1.40;1.15;;;16.20;99.90;;;;;;5010323;28;20207;-70
2022/03/15 13:37:58;;;;;;;0.40;0.40;;;16.00;99.90;;;;;;5012368;28;20590;-71
2022/03/15 13:40:45;;;;;;;0.73;0.73;;;15.90;99.90;;;;;;5013291;28;20250;-68
2022/03/15 13:43:33;;;;;;;3.47;2.75;;;15.90;99.90;;;;;;5010209;28;20607;-71
2022/03/15 13:46:21;;;;;;;0.50;0.50;;;15.90;99.90;;;;;;5010755;28;20211;-72
2022/03/15 13:49:16;;;;;;;0.40;0.40;;;15.90;99.90;;;;;;5009446;28;20266;-71
2022/03/15 13:52:08;;;;;;;0.40;0.40;;;15.90;99.90;;;;;;5010285;28;20215;-70
2022/03/15 13:55:00;;;;;;;1.60;1.50;;;15.80;99.90;;;;;;5011108;28;20211;-70
2022/03/15 13:57:51;;;;;;;0.50;0.50;;;15.60;99.90;;;;;;5024426;28;20202;-70
2022/03/15 14:00:38;;;;;;;0.43;0.43;;;15.60;99.90;;;;;;5030627;28;20223;-70
2022/03/15 14:03:28;;;;;;;0.40;0.40;;;15.50;99.90;;;;;;5012356;28;20203;-73
2022/03/15 14:06:19;;;;;;;0.40;0.40;;;15.40;99.90;;;;;;5010091;28;20214;-71
2022/03/15 14:09:08;;;;;;;0.40;0.40;;;15.40;99.90;;;;;;5010815;28;20195;-70
2022/03/15 14:12:12;;;;;;;1.48;1.48;;;15.40;99.90;;;;;;5013823;28;20224;-74
2022/03/15 14:15:04;;;;;;;0.40;0.40;;;15.30;99.90;;;;;;5011247;28;20199;-70
2022/03/15 14:17:54;;;;;;;0.40;0.40;;;15.30;99.90;;;;;;5009392;28;20207;-70
2022/03/15 14:20:44;;;;;;;0.40;0.40;;;15.30;99.90;;;;;;5024002;28;20226;-72
2022/03/15 14:23:30;;;;;;;0.40;0.40;;;15.10;99.90;;;;;;5023235;28;20206;-70
2022/03/15 14:26:28;;;;;;;0.40;0.40;;;15.10;99.90;;;;;;5019070;28;20207;-71
2022/03/15 14:29:19;;;;;;;1.02;1.02;;;15.20;99.90;;;;;;5015493;28;20704;-71
2022/03/15 14:32:09;;;;;;;0.40;0.40;;;15.20;99.90;;;;;;5008833;28;20210;-71
2022/03/15 14:35:00;;;;;;;0.40;0.40;;;15.00;99.90;;;;;;5014976;28;20203;-70
2022/03/15 14:37:47;;;;;;;0.47;0.47;;;14.90;99.90;;;;;;5014257;28;20294;-70
2022/03/15 14:40:44;;;;;;;0.43;0.43;;;14.90;99.90;;;;;;5014739;28;20710;-71
2022/03/15 14:43:36;;;;;;;0.50;0.50;;;14.90;99.90;;;;;;5013837;28;20203;-70